Ana Sayfa
METAR-TAF:

METAR-TAF

Havaalanları :

Georgetown Municipal Airport

Georgetown, Teksas, Amerika Birleşik Devletleri

Enlem: 30-41N, Boylam: 097-41W, yükseklik: 240 m

Güncel hava durumu gözlemi

Rapor saat 17:56 UTC de 17 dakika önce yapıldı.
Rüzgar kuzeydan 6 kt
Sıcaklık 5°C
Nem 93%
Basınç 1026 hPa
Görüş mesafesi: 16.1 km
800 ft yükseklikte çok bulutlu
hafif yağmur

METAR: KGTU 101756Z 35006KT 10SM -RA OVC008 05/04 A3031 RMK AO2 CIG 007V011 SLP269 P0000 60039 T00500039 10056 20039 51027

Saat: 12:13 (18:13 UTC)


TAF: eksik

4.000'den fazla havaalanı için hava durumu gözlemleri ve tahminleri (METAR ve TAF raporları).

Kullanılabilir istasyonlar harita üzerinde sarı ve kırmızı noktalarla gösterilir.

İstasyonun adını görmek için fareyi noktanın üzerinde gezdirin.

Sonrasında hava gözlem ve tahminlerini görmek için tıklayın.

Haritayı değiştirmek için: yaklaştırmak için siyah artı işaretli yeşil düğmeye ve uzaklaştırmak için de eksi işaretli düğmeye hızla tıklayın; bitişik haritalar için yeşil okları kullanın.


METAR-TAF: